• Join FlightAware (Why Join?)
  • Login
  • US Flag 
01:38AM EDT


 

Airport Tracker/Info


-or-


 

Live Flight TrackerFlight Track Log ✈ N789EX ✈ 22-Apr-2014 ✈ KBFI - KCOS

Flight Track Log - Related Links

Times and Time Zones

All times are in EDT time to prevent confusion due to time zone crossing. See the N789EX flight status page for this flight to view local times or setup timezone preferences in your user account.

Time Position Orientation Groundspeed Altitude Reporting Facility
EDT Latitude Longitude Course Direction KTS MPH feet Rate Location/Type
12:49PM 47.5051 -122.2800 148° Southeast 174 200 1,700  Level FlightAware ADS-B
12:49PM 47.4943 -122.2700 147° Southeast 184 212 2,200 1,560 Climbing FlightAware ADS-B
12:50PM 47.4825 -122.2590 146° Southeast 213 245 2,500 1,440 Climbing FlightAware ADS-B
12:50PM 47.4703 -122.2470 146° Southeast 233 268 2,900 2,040 Climbing FlightAware ADS-B
12:50PM 47.4594 -122.2360 145° Southeast 243 280 3,400 3,060 Climbing FlightAware ADS-B
12:50PM 47.4452 -122.2210 145° Southeast 250 288 4,300 3,420 Climbing FlightAware ADS-B
12:50PM 47.4395 -122.2150 146° Southeast 254 292 4,600 2,400 Climbing FlightAware ADS-B
12:50PM 47.4357 -122.2120 149° Southeast 257 296 4,700 1,980 Climbing FlightAware ADS-B
12:51PM 47.4306 -122.2080 153° Southeast 259 298 4,900 2,640 Climbing FlightAware ADS-B
12:51PM 47.4261 -122.2050 155° Southeast 261 300 5,100 3,420 Climbing FlightAware ADS-B
12:51PM 47.4227 -122.2020 157° South 262 302 5,300 3,000 Climbing FlightAware ADS-B
12:51PM 47.4193 -122.2010 160° South 263 303 5,400 2,520 Climbing FlightAware ADS-B
12:51PM 47.4149 -122.1980 163° South 264 304 5,600 3,000 Climbing FlightAware ADS-B
12:51PM 47.4106 -122.1970 166° South 265 305 5,800 3,000 Climbing FlightAware ADS-B
12:51PM 47.4053 -122.1950 170° South 266 306 6,000 3,120 Climbing FlightAware ADS-B
12:51PM 47.3865 -122.1900 169° South 272 313 6,800 3,180 Climbing FlightAware ADS-B
12:51PM 47.3677 -122.1850 169° South 277 319 7,600 2,880 Climbing FlightAware ADS-B
12:52PM 47.3485 -122.1800 170° South 280 322 8,300 2,280 Climbing FlightAware ADS-B
12:52PM 47.3349 -122.1760 170° South 283 326 8,600 1,380 Climbing FlightAware ADS-B
12:52PM 47.3141 -122.1700 170° South 287 330 8,900 720 Climbing FlightAware ADS-B
12:52PM 47.2945 -122.1650 170° South 288 331 9,000 600 Climbing FlightAware ADS-B
12:53PM 47.2748 -122.1600 170° South 289 333 9,200 1,800 Climbing FlightAware ADS-B
12:53PM 47.2549 -122.1550 170° South 288 331 9,900 2,520 Climbing FlightAware ADS-B
12:53PM 47.2145 -122.1440 170° South 308 354 11,100 1,920 Climbing FlightAware ADS-B
12:54PM 47.1700 -122.1320 170° South 340 391 11,900 1,500 Climbing FlightAware ADS-B
12:54PM 47.1425 -122.1252 170° South 363 418 12,300 1,200 Climbing FlightAware ADS-B (KPFC)
12:54PM 47.1206 -122.1190 170° South 376 433 12,500 1,200 Climbing FlightAware ADS-B
12:55PM 47.0666 -122.1050 170° South 404 465 13,200 1,380 Climbing FlightAware ADS-B
12:55PM 47.0427 -122.0986 170° South 415 478 13,500 2,160 Climbing FlightAware ADS-B (CYVR)
12:55PM 47.0098 -122.0900 170° South 419 482 14,300 2,700 Climbing FlightAware ADS-B
12:56PM 46.9573 -122.0758 169° South 423 487 15,500 2,580 Climbing FlightAware ADS-B (KPFC)
12:56PM 46.9519 -122.0740 169° South 423 487 15,600 3,720 Climbing FlightAware ADS-B
12:56PM 46.9123 -122.0640 170° South 412 474 17,000 4,020 Climbing FlightAware ADS-B
12:56PM 46.8942 -122.0580 165° South 407 468 17,700 3,960 Climbing FlightAware ADS-B
12:57PM 46.8799 -122.0510 160° South 406 467 18,200 3,660 Climbing FlightAware ADS-B
12:57PM 46.8718 -122.0460 155° Southeast 404 465 18,500 3,720 Climbing FlightAware ADS-B
12:57PM 46.8556 -122.0325 148° Southeast 402 463 19,200 2,580 Climbing FlightAware ADS-B (CYVR)
12:57PM 46.8239 -122.0020 146° Southeast 398 458 19,800 1,560 Climbing FlightAware ADS-B
12:57PM 46.8397 -122.0175 146° Southeast 391 450 20,000 360 Climbing FlightAware ADS-B
12:58PM 46.7787 -121.9580 146° Southeast 390 449 20,000  Level FlightAware ADS-B
12:58PM 46.7588 -121.9383 146° Southeast 396 456 20,000 180 Level FlightAware ADS-B
12:58PM 46.7329 -121.9130 146° Southeast 400 460 20,100 540 Climbing FlightAware ADS-B
12:58PM 46.7111 -121.8910 143° Southeast 406 467 20,300 1,200 Climbing FlightAware ADS-B
12:58PM 46.7096 -121.8893 142° Southeast 408 470 20,400 1,980 Climbing FlightAware ADS-B (KPFC)
12:59PM 46.6973 -121.8740 137° Southeast 415 478 20,600 1,080 Climbing FlightAware ADS-B
12:59PM 46.6869 -121.8580 132° Southeast 421 484 20,700 660 Climbing FlightAware ADS-B
12:59PM 46.6757 -121.8380 127° Southeast 430 495 20,800 1,200 Climbing FlightAware ADS-B
12:59PM 46.6599 -121.8000 117° Southeast 443 510 21,200 1,560 Climbing FlightAware ADS-B
12:59PM 46.6534 -121.7796 114° Southeast 448 516 21,400 1,980 Climbing FlightAware ADS-B (KPFC)
01:00PM 46.6208 -121.6760 115° Southeast 451 519 22,700 2,340 Climbing FlightAware ADS-B
01:00PM 46.6173 -121.6649 114° Southeast 438 504 23,000 4,440 Climbing FlightAware ADS-B (KPFC)
01:00PM 46.5956 -121.5950 114° Southeast 423 487 25,000 4,080 Climbing FlightAware ADS-B
01:00PM 46.6218 -121.6791 114° Southeast 435 501 25,400 2,580 Climbing FlightAware ADS-B
01:01PM 46.5713 -121.5180 115° Southeast 419 482 26,300 1,800 Climbing FlightAware ADS-B
01:01PM 46.5461 -121.4390 115° Southeast 429 494 27,000 1,320 Climbing FlightAware ADS-B
01:02PM 46.5165 -121.3450 115° Southeast 435 501 27,800 1,380 Climbing FlightAware ADS-B
01:02PM 46.4897 -121.2590 114° Southeast 442 509 28,600 1,380 Climbing FlightAware ADS-B
01:03PM 46.4776 -121.2209 114° Southeast 443 510 28,900 720 Climbing FlightAware ADS-B (KPFC)
01:03PM 46.4633 -121.1760 115° Southeast 454 522 29,000 1,020 Climbing FlightAware ADS-B
01:03PM 46.4431 -121.1132 114° Southeast 451 519 29,600 1,260 Climbing FlightAware ADS-B (KPFC)
01:04PM 46.4338 -121.0840 115° Southeast 455 524 29,700 540 Climbing FlightAware ADS-B
01:04PM 46.4139 -121.0224 115° Southeast 465 535 29,900 720 Climbing FlightAware ADS-B (KPFC)
01:04PM 46.4048 -120.9950 115° Southeast 469 540 30,100 660 Climbing FlightAware ADS-B
01:05PM 46.3850 -120.9332 115° Southeast 487 560 30,400 540 Climbing FlightAware ADS-B
01:05PM 46.3385 -120.7876 115° Southeast 496 571 30,800 540 Climbing FlightAware ADS-B
01:07PM 46.2625 -120.5532 114° Southeast 504 580 31,500 600 Climbing FlightAware ADS-B
01:07PM 46.2424 -120.4921 114° Southeast 503 579 31,800 480 Climbing FlightAware ADS-B (KPFC)
01:08PM 46.2035 -120.3724 115° Southeast 507 583 32,000 480 Climbing FlightAware ADS-B (KPFC)
01:08PM 46.1706 -120.2726 116° Southeast 507 583 32,400 660 Climbing FlightAware ADS-B
01:09PM 46.1273 -120.1413 115° Southeast 501 577 32,900 900 Climbing FlightAware ADS-B (KPFC)
01:09PM 46.0867 -120.0194 116° Southeast 494 568 33,700 1,020 Climbing FlightAware ADS-B (KPFC)
01:10PM 46.0573 -119.9306 116° Southeast 494 568 34,100 780 Climbing FlightAware ADS-B (KPFC)
01:11PM 46.0242 -119.8324 116° Southeast 494 568 34,800 600 Climbing FlightAware ADS-B
01:11PM 45.9800 -119.7001 116° Southeast 493 567 35,000 120 Climbing FlightAware ADS-B
01:12PM 45.9434 -119.5915 116° Southeast 492 566 35,000  Level FlightAware ADS-B
01:13PM 45.9043 -119.4769 116° Southeast 499 574 35,000  Level FlightAware ADS-B
01:13PM 45.8714 -119.3804 116° Southeast 502 578 35,000  Level FlightAware ADS-B
01:14PM 45.8142 -119.2192 116° Southeast 496 571 35,000  Level Salt Lake Center
01:15PM 45.7533 -119.0400 116° Southeast 499 574 35,000  Level Salt Lake Center
01:16PM 45.6928 -118.8622 116° Southeast 499 574 35,000  Level Salt Lake Center
01:17PM 45.6306 -118.6858 117° Southeast 497 572 35,000  Level Salt Lake Center
01:18PM 45.5697 -118.5114 116° Southeast 495 570 35,000  Level Salt Lake Center
01:19PM 45.5069 -118.3364 117° Southeast 495 570 35,000  Level Salt Lake Center
01:20PM 45.4467 -118.1628 116° Southeast 494 568 35,000  Level Salt Lake Center
01:21PM 45.3844 -117.9928 117° Southeast 486 559 35,000  Level Salt Lake Center
01:22PM 45.3225 -117.8203 117° Southeast 487 560 35,000  Level Salt Lake Center
01:23PM 45.2522 -117.6256 117° Southeast 487 560 35,000  Level Salt Lake Center
01:24PM 45.1908 -117.4594 118° Southeast 482 555 35,000  Level Salt Lake Center
01:25PM 45.1297 -117.2914 117° Southeast 481 554 35,000  Level Salt Lake Center
01:26PM 45.0678 -117.1253 118° Southeast 481 554 35,000  Level Salt Lake Center
01:27PM 44.9944 -116.9286 118° Southeast 477 549 35,000  Level Salt Lake Center
01:28PM 44.9319 -116.7625 118° Southeast 476 548 35,000  Level Salt Lake Center
01:29PM 44.8703 -116.5953 117° Southeast 480 552 35,000  Level Salt Lake Center
01:30PM 44.8072 -116.4292 118° Southeast 480 552 35,000  Level Salt Lake Center
01:31PM 44.7439 -116.2619 118° Southeast 480 552 35,000  Level Salt Lake Center
01:33PM 44.6789 -116.0942 119° Southeast 481 554 35,000  Level Salt Lake Center
01:34PM 44.6142 -115.9239 118° Southeast 482 555 35,000  Level Salt Lake Center
01:35PM 44.5489 -115.7553 118° Southeast 486 559 35,000  Level Salt Lake Center
01:36PM 44.4833 -115.5872 119° Southeast 488 562 35,000  Level Salt Lake Center
01:37PM 44.4169 -115.4222 119° Southeast 488 562 35,000  Level Salt Lake Center
01:38PM 44.3408 -115.2231 118° Southeast 487 560 35,000  Level Salt Lake Center
01:39PM 44.2764 -115.0592 119° Southeast 486 559 35,000  Level Salt Lake Center
01:40PM 44.2092 -114.8961 120° Southeast 486 559 35,000  Level Salt Lake Center
01:41PM 44.1428 -114.7325 119° Southeast 486 559 35,000  Level Salt Lake Center
01:47PM 43.7410 -113.7541 119° Southeast 489 563 35,000  Level FlightAware ADS-B (KBTF)
01:47PM 43.6947 -113.6435 119° Southeast 490 564 35,000  Level FlightAware ADS-B (KBTF)
01:48PM 43.6346 -113.5005 119° Southeast 495 570 35,000  Level FlightAware ADS-B (KBTF)
01:49PM 43.5780 -113.3668 119° Southeast 501 577 35,000  Level FlightAware ADS-B (KBTF)
01:50PM 43.5257 -113.2434 119° Southeast 501 577 35,000  Level FlightAware ADS-B (KBTF)
01:50PM 43.4770 -113.1293 121° Southeast 506 582 35,000  Level FlightAware ADS-B (KBTF)
01:51PM 43.4310 -113.0217 121° Southeast 507 583 35,000  Level FlightAware ADS-B (KBTF)
01:52PM 43.3890 -112.9241 121° Southeast 508 585 35,000  Level FlightAware ADS-B (KBTF)
01:52PM 43.3358 -112.8006 121° Southeast 508 585 35,000  Level FlightAware ADS-B (KBTF)
01:53PM 43.2891 -112.6930 121° Southeast 509 586 35,000  Level FlightAware ADS-B (KBTF)
01:54PM 43.2350 -112.5684 121° Southeast 509 586 35,000  Level FlightAware ADS-B (KBTF)
01:54PM 43.1941 -112.4747 121° Southeast 508 585 35,000  Level FlightAware ADS-B (KBTF)
01:55PM 43.1466 -112.3661 121° Southeast 510 587 35,000  Level FlightAware ADS-B (KBTF)
01:56PM 43.1049 -112.2713 121° Southeast 509 586 35,000  Level FlightAware ADS-B (KBTF)
01:57PM 43.0181 -112.0747 121° Southeast 506 582 35,000  Level FlightAware ADS-B (KBTF)
01:57PM 42.9698 -111.9658 120° Southeast 505 581 35,000  Level FlightAware ADS-B (KBTF)
01:58PM 42.9147 -111.8392 120° Southeast 507 583 35,000  Level Salt Lake Center
01:59PM 42.8450 -111.6828 121° Southeast 507 583 35,000  Level Salt Lake Center
02:00PM 42.7625 -111.5042 122° Southeast 505 581 35,000  Level Salt Lake Center
02:01PM 42.6958 -111.3578 122° Southeast 506 582 35,000  Level Salt Lake Center
02:02PM 42.6214 -111.1922 121° Southeast 510 587 35,000  Level Salt Lake Center
02:03PM 42.5294 -110.9911 122° Southeast 518 596 35,000  Level Salt Lake Center
02:04PM 42.4622 -110.8464 122° Southeast 514 592 35,000  Level Salt Lake Center
02:05PM 42.3778 -110.6642 122° Southeast 513 590 35,000  Level Salt Lake Center
02:11PM 41.9552 -109.7682 123° Southeast 514 592 35,000  Level FlightAware ADS-B (KBDG)
02:12PM 41.8902 -109.6328 123° Southeast 515 593 35,000  Level FlightAware ADS-B (KBDG)
02:15PM 41.6297 -109.0960 123° Southeast 520 598 35,000  Level FlightAware ADS-B (KBDG)
02:16PM 41.5294 -108.9156 129° Southeast 513 590 35,000  Level FlightAware ADS-B (KBDG)
02:17PM 41.4604 -108.8028 129° Southeast 510 587 35,000  Level FlightAware ADS-B (KBDG)
02:18PM 41.4249 -108.7450 114° Southeast 530 610 35,000  Level FlightAware ADS-B (KBDG)
02:24PM 41.0672 -107.6407 112° Southeast 536 617 35,000  Level FlightAware ADS-B (KBDG)
02:25PM 41.0076 -107.4490 112° Southeast 540 621 35,000  Level FlightAware ADS-B (KBDG)
02:26PM 40.9107 -107.1395 113° Southeast 544 626 35,000 -240 Level FlightAware ADS-B (KEIK)
02:27PM 40.8784 -107.0374 113° Southeast 544 626 34,600 -1,140 Descending FlightAware ADS-B (KEIK)
02:28PM 40.8413 -106.9206 113° Southeast 546 628 33,700 -1,260 Descending FlightAware ADS-B (KEIK)
02:28PM 40.7997 -106.7900 113° Southeast 547 629 32,800 -1,140 Descending FlightAware ADS-B (KEIK)
02:29PM 40.7901 -106.7600 113° Southeast 546 628 32,200 -1,260 Descending FlightAware ADS-B (KBDG)
02:29PM 40.7329 -106.5811 113° Southeast 545 627 31,400 -1,200 Descending FlightAware ADS-B (KEIK)
02:30PM 40.6978 -106.4727 113° Southeast 544 626 30,900 -1,140 Descending FlightAware ADS-B (KEIK)
02:31PM 40.6569 -106.3463 113° Southeast 544 626 30,100 -1,200 Descending FlightAware ADS-B (KEIK)
02:31PM 40.6289 -106.2606 113° Southeast 546 628 29,500 -1,080 Descending FlightAware ADS-B (KEIK)
02:32PM 40.5790 -106.1076 113° Southeast 542 624 28,700 -1,140 Descending FlightAware ADS-B (KEIK)
02:32PM 40.5498 -106.0183 113° Southeast 528 608 28,100 -1,380 Descending FlightAware ADS-B (KEIK)
02:33PM 40.4959 -105.8550 113° Southeast 521 600 26,700 -1,560 Descending FlightAware ADS-B (KEIK)
02:34PM 40.4661 -105.7646 113° Southeast 515 593 25,900 -1,560 Descending FlightAware ADS-B (KEIK)
02:35PM 40.4317 -105.6614 114° Southeast 505 581 25,000 -1,560 Descending FlightAware ADS-B (KEIK)
02:35PM 40.3967 -105.5564 114° Southeast 498 573 24,000 -1,500 Descending FlightAware ADS-B (KEIK)
02:36PM 40.3629 -105.4590 119° Southeast 496 571 23,200 -720 Descending FlightAware ADS-B (KEIK)
02:37PM 40.2912 -105.3561 136° Southeast 482 555 23,000 -180 Descending FlightAware ADS-B
02:37PM 40.2751 -105.3359 137° Southeast 486 559 23,000  Level FlightAware ADS-B (KBJC)
02:38PM 40.1827 -105.2224 137° Southeast 476 548 23,000 -720 Level FlightAware ADS-B (KEIK)
02:38PM 40.1216 -105.1465 136° Southeast 448 516 22,200 -1,260 Descending FlightAware ADS-B
02:39PM 40.0895 -105.1069 136° Southeast 425 489 21,700 -1,200 Descending FlightAware ADS-B (KEIK)
02:39PM 40.0471 -105.0547 137° Southeast 398 458 21,200 -1,500 Descending FlightAware ADS-B (KBJC)
02:40PM 40.0073 -105.0061 137° Southeast 376 433 20,200 -2,160 Descending FlightAware ADS-B (KBJC)
02:40PM 39.9614 -104.9506 137° Southeast 368 423 18,800 -1,920 Descending FlightAware ADS-B
02:41PM 39.9341 -104.9191 153° Southeast 371 427 18,200 -1,200 Descending FlightAware ADS-B (KBJC)
02:41PM 39.9059 -104.9037 166° South 366 421 18,000 -1,200 Descending FlightAware ADS-B (KEIK)
02:42PM 39.8527 -104.8856 167° South 357 411 17,300 -1,620 Descending FlightAware ADS-B (KEIK)
02:42PM 39.8007 -104.8727 169° South 352 405 16,300 -1,980 Descending FlightAware ADS-B (KBJC)
02:43PM 39.7533 -104.8616 171° South 352 405 15,300 -1,920 Descending FlightAware ADS-B (KEIK)
02:43PM 39.7056 -104.8515 171° South 349 402 14,400 -1,800 Descending FlightAware ADS-B (KEIK)
02:44PM 39.6544 -104.8402 170° South 342 394 13,500 -1,740 Descending FlightAware ADS-B (KBJC)
02:44PM 39.6078 -104.8299 171° South 338 389 12,600 -1,500 Descending FlightAware ADS-B (KBJC)
02:45PM 39.5579 -104.8191 171° South 334 384 11,900 -600 Descending FlightAware ADS-B (KEIK)
02:45PM 39.5017 -104.8069 171° South 331 381 11,900  Level FlightAware ADS-B
02:46PM 39.4466 -104.7949 170° South 335 386 11,900  Level FlightAware ADS-B (KEIK)
02:46PM 39.4015 -104.7852 170° South 330 380 11,900  Level FlightAware ADS-B (KBJC)
02:47PM 39.3157 -104.7662 170° South 327 376 11,900  Level FlightAware ADS-B
02:48PM 39.2978 -104.7623 171° South 327 376 11,900  Level FlightAware ADS-B
02:48PM 39.2262 -104.7469 170° South 333 383 11,900  Level FlightAware ADS-B (KEIK)
02:49PM 39.1774 -104.7348 167° South 332 382 11,900  Level FlightAware ADS-B (KEIK)
02:49PM 39.1324 -104.7209 166° South 306 352 11,900 -180 Level FlightAware ADS-B (KEIK)
02:50PM 39.0777 -104.7032 167° South 258 297 11,700 -1,020 Descending FlightAware ADS-B (KFLY)
02:51PM 39.0307 -104.6889 168° South 240 276 10,500 -2,040 Descending FlightAware ADS-B (KEIK)
02:51PM 39.0104 -104.6848 178° South 240 276 9,700 -1,500 Descending FlightAware ADS-B (KFLY)
02:52PM 38.9653 -104.6854 180° South 207 238 9,000 -1,140 Descending FlightAware ADS-B (KFLY)
02:52PM 38.9469 -104.6854 180° South 195 224 8,600 -1,080 Descending FlightAware ADS-B (KFLY)
02:52PM 38.9347 -104.6854 180° South 179 206 8,300 -960 Descending FlightAware ADS-B (KFLY)
02:53PM 38.9144 -104.6855 180° South 177 204 8,000 -900 Descending FlightAware ADS-B (KFLY)
02:53PM 38.8968 -104.6855 179° South 172 198 7,700 -900 Descending FlightAware ADS-B (KFLY)
02:53PM 38.8946 -104.6854 181° South 171 197 7,400 -960 Descending FlightAware ADS-B (KFLY)
02:54PM 38.8652 -104.6856 180° South 165 190 7,100 -900 Descending FlightAware ADS-B (KFLY)
02:54PM 38.8388 -104.6856 180° South 167 192 6,600 -840 Descending FlightAware ADS-B (KFLY)